Time;durP1;ratioP1;P1;durP2;ratioP2;P2;SDS_P1;SDS_P2;PMS_P1;PMS_P2;Temp;Humidity;BMP_temperature;BMP_pressure;BME280_temperature;BME280_humidity;BME280_pressure;Samples;Min_cycle;Max_cycle;Signal;HPM_P1;HPM_P2
2021/03/02 04:14:50;;;;;;;4.68;0.70;;;1.90;95.30;;;;;;5053105;28;20049;-65
2021/03/02 04:17:16;;;;;;;0.93;0.57;;;1.90;95.20;;;;;;5054042;28;20098;-65
2021/03/02 04:19:41;;;;;;;2.78;0.90;;;2.00;95.20;;;;;;5053639;28;20024;-65
2021/03/02 04:22:07;;;;;;;4.82;1.05;;;2.00;95.20;;;;;;5053697;28;20431;-65
2021/03/02 04:24:33;;;;;;;5.22;1.00;;;2.00;95.20;;;;;;5053667;28;20017;-65
2021/03/02 04:26:59;;;;;;;2.33;0.80;;;2.00;95.20;;;;;;5053316;28;20037;-65
2021/03/02 04:29:24;;;;;;;4.32;0.93;;;2.00;95.30;;;;;;5053864;28;20028;-65
2021/03/02 04:31:50;;;;;;;5.10;0.80;;;2.00;95.20;;;;;;5052583;28;20715;-65
2021/03/02 04:34:16;;;;;;;2.42;0.80;;;2.00;95.20;;;;;;5053376;28;20057;-65
2021/03/02 04:36:42;;;;;;;4.93;1.08;;;2.00;95.20;;;;;;5053019;28;20455;-65
2021/03/02 04:39:08;;;;;;;1.98;1.02;;;2.00;95.10;;;;;;5053200;28;20021;-65
2021/03/02 04:41:35;;;;;;;3.78;1.33;;;2.00;95.10;;;;;;5053110;28;20111;-65
2021/03/02 04:44:01;;;;;;;2.03;0.90;;;2.00;95.10;;;;;;5052978;28;20025;-65
2021/03/02 04:46:27;;;;;;;2.17;1.00;;;2.00;95.00;;;;;;5053260;28;20037;-65
2021/03/02 04:48:52;;;;;;;2.67;0.85;;;2.10;95.10;;;;;;5051538;28;20036;-65
2021/03/02 04:51:18;;;;;;;1.58;0.80;;;2.10;95.00;;;;;;5052930;28;20098;-65
2021/03/02 04:53:44;;;;;;;0.82;0.60;;;2.10;94.90;;;;;;5053081;28;20163;-64
2021/03/02 04:56:10;;;;;;;4.68;1.08;;;2.10;94.80;;;;;;5053127;28;20049;-65
2021/03/02 04:58:36;;;;;;;3.55;0.85;;;2.10;94.70;;;;;;5052824;28;20076;-65
2021/03/02 05:01:02;;;;;;;3.58;0.90;;;2.10;94.70;;;;;;5052723;28;20036;-65
2021/03/02 05:03:27;;;;;;;2.53;0.70;;;2.20;94.80;;;;;;5052936;28;20028;-65
2021/03/02 05:05:53;;;;;;;4.82;0.95;;;2.20;94.50;;;;;;5052819;28;20024;-65
2021/03/02 05:08:19;;;;;;;1.33;0.90;;;2.20;94.50;;;;;;5052879;28;20027;-64
2021/03/02 05:10:45;;;;;;;4.25;0.98;;;2.10;94.50;;;;;;5052734;28;20494;-65
2021/03/02 05:13:10;;;;;;;1.48;0.75;;;2.10;94.50;;;;;;5052522;28;20079;-64
2021/03/02 05:15:36;;;;;;;1.42;0.73;;;2.20;94.60;;;;;;5052341;28;20045;-65
2021/03/02 05:18:03;;;;;;;1.98;0.85;;;2.20;94.70;;;;;;5052622;28;20061;-64
2021/03/02 05:20:29;;;;;;;1.83;0.70;;;2.10;94.60;;;;;;5052740;28;20107;-65
2021/03/02 05:22:54;;;;;;;1.38;0.68;;;2.20;94.70;;;;;;5052199;28;20545;-64
2021/03/02 05:25:20;;;;;;;4.45;1.20;;;2.20;94.60;;;;;;5052316;28;20108;-66
2021/03/02 05:27:46;;;;;;;1.17;0.70;;;2.20;94.50;;;;;;5052312;28;20044;-67
2021/03/02 05:30:12;;;;;;;2.97;0.80;;;2.30;94.50;;;;;;5052343;28;20023;-67
2021/03/02 05:32:38;;;;;;;1.88;0.80;;;2.30;95.10;;;;;;5052104;28;20485;-66
2021/03/02 05:35:04;;;;;;;1.02;0.70;;;2.50;97.70;;;;;;5051954;28;20029;-67
2021/03/02 05:37:30;;;;;;;1.10;0.60;;;2.50;94.20;;;;;;5051913;28;20477;-67
2021/03/02 05:39:55;;;;;;;1.77;0.70;;;2.40;94.00;;;;;;5051652;28;20032;-66
2021/03/02 05:42:21;;;;;;;3.33;0.80;;;2.30;94.10;;;;;;5051176;28;20035;-66
2021/03/02 05:44:47;;;;;;;4.32;0.90;;;2.30;94.20;;;;;;5051427;28;20477;-68
2021/03/02 05:47:14;;;;;;;2.15;0.90;;;2.30;94.30;;;;;;5050877;28;20116;-67
2021/03/02 05:49:41;;;;;;;1.20;0.70;;;2.30;94.30;;;;;;5051366;28;20033;-67
2021/03/02 05:52:10;;;;;;;3.40;0.95;;;2.30;94.40;;;;;;5050517;28;20094;-65
2021/03/02 05:54:37;;;;;;;1.95;0.80;;;2.30;94.20;;;;;;5049268;28;20028;-67
2021/03/02 05:57:03;;;;;;;0.60;0.60;;;2.30;94.20;;;;;;5051140;28;20029;-68
2021/03/02 05:59:29;;;;;;;0.80;0.63;;;2.30;94.20;;;;;;5052269;28;20017;-67
2021/03/02 06:01:55;;;;;;;1.35;1.17;;;2.20;94.20;;;;;;5051257;28;20028;-67
2021/03/02 06:04:21;;;;;;;1.42;0.80;;;2.30;94.20;;;;;;5051207;28;20112;-67
2021/03/02 06:06:46;;;;;;;1.05;0.60;;;2.30;94.00;;;;;;5050791;28;20044;-67
2021/03/02 06:09:12;;;;;;;2.75;0.60;;;2.40;93.70;;;;;;5051210;28;20017;-67
2021/03/02 06:11:38;;;;;;;2.47;0.82;;;2.50;93.30;;;;;;5051446;28;20025;-68
2021/03/02 06:14:24;;;;;;;1.00;0.60;;;2.60;92.90;;;;;;5051326;28;20032;-68
2021/03/02 06:16:51;;;;;;;1.33;0.90;;;2.60;92.60;;;;;;5051544;28;20032;-68
2021/03/02 06:19:18;;;;;;;1.63;0.90;;;2.70;92.50;;;;;;5051645;28;20025;-67
2021/03/02 06:21:44;;;;;;;2.60;0.82;;;2.90;92.00;;;;;;5051418;28;20510;-68
2021/03/02 06:24:11;;;;;;;2.05;0.77;;;3.00;92.40;;;;;;5051565;28;20052;-69
2021/03/02 06:26:38;;;;;;;2.08;0.60;;;3.20;91.50;;;;;;5051783;28;20064;-68
2021/03/02 06:29:16;;;;;;;1.52;0.50;;;3.30;90.40;;;;;;5051413;28;20029;-67
2021/03/02 06:31:44;;;;;;;1.80;0.70;;;3.30;90.10;;;;;;5051560;28;20032;-68
2021/03/02 06:34:11;;;;;;;1.60;0.70;;;3.30;89.80;;;;;;5051447;28;20444;-68
2021/03/02 06:36:39;;;;;;;1.20;0.60;;;3.40;89.50;;;;;;5051746;28;20104;-68
2021/03/02 06:39:31;;;;;;;2.35;0.70;;;3.50;89.30;;;;;;5051593;28;20040;-67
2021/03/02 06:42:15;;;;;;;1.50;0.70;;;3.60;88.30;;;;;;5051134;28;20064;-67
2021/03/02 06:44:43;;;;;;;1.75;0.80;;;3.70;85.80;;;;;;5051407;28;20036;-67
2021/03/02 06:47:09;;;;;;;3.63;0.80;;;3.70;86.50;;;;;;5051390;28;20056;-68
2021/03/02 06:49:45;;;;;;;1.23;0.63;;;3.70;86.30;;;;;;5051508;28;20484;-68
2021/03/02 06:52:18;;;;;;;1.08;0.70;;;3.80;86.20;;;;;;5050150;28;20487;-68
2021/03/02 06:54:48;;;;;;;0.73;0.60;;;3.90;85.30;;;;;;5053623;28;20017;-67
2021/03/02 06:57:25;;;;;;;2.63;0.73;;;3.90;85.00;;;;;;5055206;28;20025;-68
2021/03/02 07:00:00;;;;;;;3.47;0.80;;;3.90;84.90;;;;;;5054678;28;20495;-67
2021/03/02 07:02:33;;;;;;;2.25;0.60;;;4.00;89.70;;;;;;5055198;28;20033;-68
2021/03/02 07:05:05;;;;;;;1.30;0.63;;;4.40;87.00;;;;;;5054787;28;20103;-67
2021/03/02 07:07:31;;;;;;;3.08;0.90;;;4.50;85.10;;;;;;5054363;28;20075;-67
2021/03/02 07:09:58;;;;;;;2.53;0.85;;;4.40;83.10;;;;;;5054138;28;20556;-69
2021/03/02 07:12:24;;;;;;;3.20;1.00;;;4.30;83.00;;;;;;5054590;28;20037;-68
2021/03/02 07:14:50;;;;;;;2.17;0.73;;;4.20;82.30;;;;;;5053296;28;20091;-66
2021/03/02 07:17:16;;;;;;;1.17;0.70;;;4.20;82.80;;;;;;5054284;28;20033;-66
2021/03/02 07:19:44;;;;;;;3.03;0.82;;;4.30;89.00;;;;;;5054416;28;20120;-66
2021/03/02 07:22:11;;;;;;;3.05;0.80;;;4.40;85.00;;;;;;5054035;28;20036;-66
2021/03/02 07:24:39;;;;;;;1.75;0.60;;;4.40;86.10;;;;;;5054431;28;20029;-65
2021/03/02 07:27:08;;;;;;;0.60;0.60;;;4.30;84.50;;;;;;5051444;28;20036;-65
2021/03/02 07:29:34;;;;;;;2.50;0.73;;;4.30;84.20;;;;;;5053238;28;20104;-64
2021/03/02 07:32:02;;;;;;;3.88;1.40;;;4.40;86.10;;;;;;5053501;28;20064;-65
2021/03/02 07:34:28;;;;;;;4.30;0.98;;;4.40;86.30;;;;;;5053973;28;20017;-65
2021/03/02 07:36:54;;;;;;;3.20;1.10;;;4.50;85.90;;;;;;5054241;28;20099;-64
2021/03/02 07:39:23;;;;;;;7.30;1.25;;;4.50;84.00;;;;;;5054254;28;20412;-65
2021/03/02 07:41:51;;;;;;;5.15;0.80;;;4.40;85.40;;;;;;5053761;28;20025;-65
2021/03/02 07:44:18;;;;;;;1.10;0.50;;;4.60;85.60;;;;;;5053530;28;20055;-65
2021/03/02 07:46:46;;;;;;;1.25;0.73;;;4.60;85.40;;;;;;5053933;28;20029;-65
2021/03/02 07:49:23;;;;;;;0.85;0.60;;;4.50;83.30;;;;;;5053597;28;20028;-64
2021/03/02 07:52:09;;;;;;;2.47;0.77;;;4.60;87.10;;;;;;5054013;28;20079;-65
2021/03/02 07:54:35;;;;;;;3.10;0.77;;;4.70;85.90;;;;;;5053137;28;20036;-64
2021/03/02 07:57:16;;;;;;;5.05;0.73;;;4.70;85.20;;;;;;5053890;28;20025;-70
2021/03/02 07:59:44;;;;;;;3.50;0.88;;;4.70;83.60;;;;;;5053839;28;20507;-70
2021/03/02 08:02:19;;;;;;;4.13;0.70;;;4.60;82.30;;;;;;5053650;28;20041;-70
2021/03/02 08:04:49;;;;;;;0.65;0.60;;;4.40;81.90;;;;;;5053214;28;20070;-69
2021/03/02 08:07:28;;;;;;;1.92;0.70;;;4.40;82.70;;;;;;5052675;28;20112;-70
2021/03/02 08:09:58;;;;;;;1.40;0.63;;;4.30;82.00;;;;;;5053375;28;20025;-70
2021/03/02 08:12:26;;;;;;;2.28;0.85;;;4.30;82.10;;;;;;5053907;28;20158;-71
2021/03/02 08:14:53;;;;;;;0.65;0.60;;;4.20;82.30;;;;;;5053000;28;20500;-71
2021/03/02 08:17:20;;;;;;;1.83;0.60;;;4.30;83.80;;;;;;5051609;28;20037;-73
2021/03/02 08:20:03;;;;;;;5.47;1.10;;;5.20;88.00;;;;;;5053871;28;20032;-81
2021/03/02 08:22:33;;;;;;;3.08;0.70;;;5.10;80.80;;;;;;5053362;28;20052;-75
2021/03/02 08:25:10;;;;;;;3.03;0.80;;;5.10;81.30;;;;;;5052967;28;20025;-75
2021/03/02 08:27:56;;;;;;;5.28;0.70;;;4.80;80.50;;;;;;5053496;28;20056;-76
2021/03/02 08:30:28;;;;;;;2.60;1.48;;;4.70;80.20;;;;;;5053182;28;20036;-74
2021/03/02 08:32:56;;;;;;;2.63;0.70;;;4.60;80.70;;;;;;5053252;28;20060;-74
2021/03/02 08:35:32;;;;;;;2.67;0.80;;;4.50;81.30;;;;;;5053286;28;20056;-75
2021/03/02 08:38:03;;;;;;;3.10;0.70;;;4.50;80.60;;;;;;5053027;28;20074;-75
2021/03/02 08:40:32;;;;;;;2.42;1.13;;;4.60;90.00;;;;;;5053383;28;20098;-74
2021/03/02 08:43:02;;;;;;;3.03;0.90;;;5.00;81.00;;;;;;5052899;28;20517;-74
2021/03/02 08:45:29;;;;;;;0.90;0.70;;;4.80;80.10;;;;;;5052932;28;20074;-74
2021/03/02 08:48:14;;;;;;;2.05;0.90;;;4.70;80.00;;;;;;5052974;28;20057;-75
2021/03/02 08:50:41;;;;;;;1.20;0.60;;;4.60;78.90;;;;;;5052887;28;20025;-74
2021/03/02 08:53:30;;;;;;;2.13;0.60;;;4.60;80.10;;;;;;5053033;28;20029;-75
2021/03/02 08:55:56;;;;;;;1.88;0.80;;;4.60;79.90;;;;;;5052573;28;20489;-75
2021/03/02 08:58:32;;;;;;;2.92;0.65;;;4.60;79.50;;;;;;5052774;28;20029;-75
2021/03/02 09:01:21;;;;;;;2.17;0.60;;;4.60;80.00;;;;;;5052905;28;20082;-75
2021/03/02 09:03:47;;;;;;;2.35;0.85;;;4.60;78.30;;;;;;5052499;28;20024;-75
2021/03/02 09:06:23;;;;;;;2.38;0.70;;;4.60;78.30;;;;;;5052166;28;20036;-75
2021/03/02 09:09:00;;;;;;;2.72;0.70;;;4.60;78.70;;;;;;5052462;28;20473;-74
2021/03/02 09:11:37;;;;;;;2.95;0.90;;;4.60;78.90;;;;;;5052562;28;20086;-76
2021/03/02 09:14:25;;;;;;;2.40;0.98;;;4.60;78.80;;;;;;5052083;28;20036;-76
2021/03/02 09:17:00;;;;;;;3.72;0.80;;;4.60;78.50;;;;;;5052004;28;20031;-75
2021/03/02 09:19:28;;;;;;;4.57;0.70;;;4.60;78.50;;;;;;5052375;28;20024;-74
2021/03/02 09:22:20;;;;;;;3.25;0.80;;;4.70;78.70;;;;;;5052104;28;20496;-74
2021/03/02 09:24:57;;;;;;;1.95;0.70;;;4.60;78.30;;;;;;5052420;28;20029;-75
2021/03/02 09:27:36;;;;;;;1.63;0.75;;;4.70;78.60;;;;;;5052052;28;20132;-75
2021/03/02 09:30:05;;;;;;;2.67;0.90;;;4.70;78.60;;;;;;5052403;28;20021;-74
2021/03/02 09:32:32;;;;;;;1.13;0.68;;;4.70;77.90;;;;;;5052205;28;20020;-75
2021/03/02 09:35:07;;;;;;;3.78;0.90;;;4.70;78.00;;;;;;5051975;28;20029;-75
2021/03/02 09:37:36;;;;;;;2.33;0.65;;;4.70;78.40;;;;;;5052208;28;20059;-75
2021/03/02 09:40:11;;;;;;;3.90;1.17;;;4.70;78.10;;;;;;5052059;28;20035;-75
2021/03/02 09:42:39;;;;;;;2.95;0.82;;;4.80;78.10;;;;;;5052240;28;20033;-76
2021/03/02 09:45:14;;;;;;;8.38;1.38;;;4.80;78.00;;;;;;5051684;28;20021;-76
2021/03/02 09:47:42;;;;;;;5.38;1.00;;;4.80;77.60;;;;;;5051851;28;20124;-76
2021/03/02 09:50:12;;;;;;;3.55;0.85;;;4.80;77.00;;;;;;5051597;28;20558;-75
2021/03/02 09:52:42;;;;;;;3.10;0.93;;;4.80;76.80;;;;;;5052086;28;20389;-75
2021/03/02 09:55:14;;;;;;;3.83;0.88;;;4.80;76.80;;;;;;5051561;28;20061;-76
2021/03/02 09:58:07;;;;;;;3.38;0.95;;;4.90;76.60;;;;;;5051888;28;20466;-75
2021/03/02 10:00:52;;;;;;;1.58;0.80;;;4.90;76.50;;;;;;5051783;28;20112;-75
2021/03/02 10:03:22;;;;;;;2.92;0.70;;;4.90;76.30;;;;;;5051749;28;20020;-74
2021/03/02 10:05:56;;;;;;;3.88;0.80;;;4.90;76.50;;;;;;5051618;28;20062;-76
2021/03/02 10:08:28;;;;;;;3.85;0.70;;;4.90;76.60;;;;;;5051771;28;20045;-76
2021/03/02 10:10:57;;;;;;;3.35;1.00;;;4.90;76.50;;;;;;5051854;28;20033;-75
2021/03/02 10:13:35;;;;;;;6.78;1.00;;;4.90;76.60;;;;;;5051649;28;20020;-74
2021/03/02 10:16:27;;;;;;;2.67;0.70;;;4.90;76.60;;;;;;5051280;28;20151;-75
2021/03/02 10:18:54;;;;;;;2.33;0.73;;;5.00;76.20;;;;;;5051488;28;20032;-75
2021/03/02 10:21:22;;;;;;;4.10;1.20;;;5.00;76.30;;;;;;5051485;28;20107;-74
2021/03/02 10:23:52;;;;;;;2.05;0.75;;;5.00;75.90;;;;;;5051506;28;20392;-75
2021/03/02 10:26:37;;;;;;;2.50;0.87;;;5.00;75.90;;;;;;5051686;28;20587;-75
2021/03/02 10:29:07;;;;;;;1.42;0.85;;;5.10;75.00;;;;;;5052634;28;20029;-76
2021/03/02 10:31:35;;;;;;;4.95;0.68;;;5.10;74.80;;;;;;5060322;28;20563;-76
2021/03/02 10:34:02;;;;;;;3.45;0.95;;;5.10;73.90;;;;;;5056129;28;20021;-73
2021/03/02 10:36:32;;;;;;;4.40;0.80;;;5.10;73.90;;;;;;5055285;28;20052;-73
2021/03/02 10:38:59;;;;;;;4.00;1.02;;;5.10;73.40;;;;;;5056619;28;20021;-73
2021/03/02 10:41:26;;;;;;;4.47;0.95;;;5.10;73.20;;;;;;5055197;28;20078;-73
2021/03/02 10:43:53;;;;;;;3.97;1.10;;;5.20;73.10;;;;;;5055314;28;20025;-73
2021/03/02 10:46:20;;;;;;;2.85;0.80;;;5.20;72.80;;;;;;5055094;28;20406;-73
2021/03/02 10:48:47;;;;;;;1.98;0.77;;;5.20;73.10;;;;;;5055341;28;20443;-73
2021/03/02 10:51:14;;;;;;;2.10;1.20;;;5.20;73.00;;;;;;5055400;28;20120;-74
2021/03/02 10:53:40;;;;;;;5.25;0.90;;;5.20;72.60;;;;;;5054961;28;20067;-72
2021/03/02 10:56:06;;;;;;;1.02;0.70;;;5.30;72.50;;;;;;5055041;28;20412;-73
2021/03/02 10:58:32;;;;;;;2.42;1.20;;;5.30;72.40;;;;;;5055071;28;20039;-73
2021/03/02 11:00:58;;;;;;;2.15;0.80;;;5.30;71.40;;;;;;5054890;28;20104;-72
2021/03/02 11:03:27;;;;;;;3.67;0.90;;;5.30;71.40;;;;;;5055144;28;20120;-72
2021/03/02 11:05:52;;;;;;;1.65;0.80;;;5.30;71.90;;;;;;5054860;28;20025;-72
2021/03/02 11:08:22;;;;;;;1.60;0.82;;;5.30;71.70;;;;;;5053388;28;20043;-72
2021/03/02 11:10:49;;;;;;;5.03;1.30;;;5.40;71.20;;;;;;5055213;28;20017;-72
2021/03/02 11:13:16;;;;;;;1.95;0.70;;;5.40;71.60;;;;;;5054704;28;20031;-72
2021/03/02 11:15:42;;;;;;;4.40;1.30;;;5.40;71.50;;;;;;5054630;28;20409;-73
2021/03/02 11:18:08;;;;;;;2.92;1.10;;;5.40;70.50;;;;;;5054640;28;20025;-74
2021/03/02 11:20:35;;;;;;;5.53;1.25;;;5.40;70.40;;;;;;5054572;28;20108;-73
2021/03/02 11:23:02;;;;;;;2.55;1.20;;;5.50;70.00;;;;;;5054470;28;20467;-73
2021/03/02 11:25:29;;;;;;;2.85;0.85;;;5.40;70.10;;;;;;5054612;28;20037;-73
2021/03/02 11:27:55;;;;;;;3.92;1.00;;;5.50;70.20;;;;;;5054389;28;20131;-74
2021/03/02 11:30:21;;;;;;;3.22;0.90;;;5.50;70.30;;;;;;5054389;28;20032;-74
2021/03/02 11:32:47;;;;;;;4.82;0.80;;;5.50;70.40;;;;;;5054541;28;20033;-74
2021/03/02 11:35:13;;;;;;;1.80;0.80;;;5.50;70.30;;;;;;5054144;28;20098;-73
2021/03/02 11:37:43;;;;;;;2.88;0.88;;;5.50;70.00;;;;;;5054208;28;20025;-74
2021/03/02 11:40:15;;;;;;;2.87;0.90;;;5.50;69.90;;;;;;5053746;28;20088;-74
2021/03/02 11:42:41;;;;;;;2.95;1.00;;;5.60;69.30;;;;;;5054342;28;20268;-74
2021/03/02 11:45:09;;;;;;;0.90;0.60;;;5.60;69.40;;;;;;5054306;28;20060;-75
2021/03/02 11:47:35;;;;;;;2.35;0.90;;;5.60;69.00;;;;;;5054222;28;20435;-74
2021/03/02 11:50:02;;;;;;;1.77;0.80;;;5.50;68.90;;;;;;5053859;28;20017;-74
2021/03/02 11:52:28;;;;;;;2.15;1.23;;;5.50;68.60;;;;;;5054437;28;20052;-73
2021/03/02 11:54:54;;;;;;;1.73;0.80;;;5.50;69.20;;;;;;5053817;28;20480;-73
2021/03/02 11:57:20;;;;;;;4.03;1.13;;;5.60;69.00;;;;;;5053848;28;20037;-74
2021/03/02 11:59:46;;;;;;;2.58;0.88;;;5.60;68.90;;;;;;5054160;28;20017;-74
2021/03/02 12:02:15;;;;;;;4.28;1.23;;;5.60;69.30;;;;;;5053691;28;20048;-73
2021/03/02 12:04:41;;;;;;;2.95;0.98;;;5.60;69.70;;;;;;5054078;28;20029;-73
2021/03/02 12:07:08;;;;;;;4.28;1.00;;;5.60;69.60;;;;;;5053511;28;20036;-73
2021/03/02 12:09:34;;;;;;;3.88;0.98;;;5.60;69.90;;;;;;5053693;28;20021;-74
2021/03/02 12:12:00;;;;;;;4.93;1.00;;;5.60;69.50;;;;;;5053602;28;20031;-74
2021/03/02 12:14:26;;;;;;;3.95;0.98;;;5.60;69.20;;;;;;5053468;28;20049;-75
2021/03/02 12:16:52;;;;;;;3.03;1.10;;;5.60;69.90;;;;;;5053622;28;20032;-74
2021/03/02 12:19:17;;;;;;;2.40;1.13;;;5.60;69.60;;;;;;5053580;28;20036;-76
2021/03/02 12:21:43;;;;;;;1.70;0.80;;;5.70;69.00;;;;;;5053568;28;20029;-76
2021/03/02 12:24:18;;;;;;;5.10;0.98;;;5.70;69.30;;;;;;5053290;28;20082;-75
2021/03/02 12:26:44;;;;;;;4.35;1.10;;;5.70;69.20;;;;;;5053484;28;20059;-74
2021/03/02 12:29:11;;;;;;;4.28;1.23;;;5.70;69.40;;;;;;5053075;28;20033;-73
2021/03/02 12:31:36;;;;;;;3.30;1.00;;;5.70;70.20;;;;;;5053415;28;20032;-75
2021/03/02 12:34:02;;;;;;;2.65;0.98;;;5.70;69.40;;;;;;5053127;28;20028;-75
2021/03/02 12:36:28;;;;;;;2.25;0.77;;;5.70;69.10;;;;;;5053608;28;20028;-77
2021/03/02 12:38:54;;;;;;;3.50;0.93;;;5.70;69.00;;;;;;5052820;28;20380;-75
2021/03/02 12:41:20;;;;;;;2.92;1.00;;;5.70;68.80;;;;;;5053378;28;20150;-76
2021/03/02 12:43:46;;;;;;;4.30;1.10;;;5.70;68.70;;;;;;5053252;28;20085;-76
2021/03/02 12:46:11;;;;;;;5.78;1.10;;;5.70;68.30;;;;;;5052978;28;20440;-75
2021/03/02 12:48:37;;;;;;;4.15;1.30;;;5.70;68.30;;;;;;5053106;28;20056;-75
2021/03/02 12:51:03;;;;;;;3.13;0.80;;;5.80;68.40;;;;;;5052713;28;20377;-77
2021/03/02 12:53:29;;;;;;;5.68;1.42;;;5.80;68.50;;;;;;5052462;28;20029;-74
2021/03/02 12:55:55;;;;;;;6.40;1.25;;;5.70;67.90;;;;;;5053215;28;20063;-76
2021/03/02 12:58:20;;;;;;;3.45;1.00;;;5.80;68.20;;;;;;5052760;28;20438;-76
2021/03/02 13:00:46;;;;;;;5.93;1.08;;;5.80;68.40;;;;;;5052569;28;20040;-74
2021/03/02 13:03:13;;;;;;;3.97;1.08;;;5.70;68.30;;;;;;5052433;28;20071;-76
2021/03/02 13:05:40;;;;;;;3.30;1.10;;;5.80;68.50;;;;;;5052347;28;20433;-74
2021/03/02 13:08:07;;;;;;;4.22;1.00;;;5.70;68.70;;;;;;5052447;28;20041;-75
2021/03/02 13:10:33;;;;;;;3.33;1.20;;;5.80;68.70;;;;;;5052349;28;20028;-76
2021/03/02 13:13:02;;;;;;;3.10;0.88;;;5.80;68.80;;;;;;5052550;28;20052;-75
2021/03/02 13:15:28;;;;;;;2.63;0.93;;;5.80;68.80;;;;;;5051919;28;20045;-76
2021/03/02 13:17:56;;;;;;;3.65;0.93;;;5.80;68.80;;;;;;5052256;28;20090;-74
2021/03/02 13:20:22;;;;;;;3.33;0.90;;;5.70;69.00;;;;;;5052540;28;20032;-75
2021/03/02 13:22:51;;;;;;;5.32;0.90;;;5.80;68.40;;;;;;5052394;28;20381;-75
2021/03/02 13:25:18;;;;;;;1.95;0.80;;;5.70;68.40;;;;;;5052243;28;20029;-75
2021/03/02 13:27:48;;;;;;;5.05;1.00;;;5.80;68.90;;;;;;5052323;28;20033;-76
2021/03/02 13:30:18;;;;;;;2.80;1.20;;;5.70;68.50;;;;;;5052240;28;20025;-76
2021/03/02 13:32:55;;;;;;;2.72;0.80;;;5.70;68.70;;;;;;5052272;28;20032;-75
2021/03/02 13:35:21;;;;;;;2.33;0.98;;;5.70;68.30;;;;;;5052290;28;20546;-75
2021/03/02 13:37:48;;;;;;;4.05;1.15;;;5.70;68.10;;;;;;5052481;28;20048;-76
2021/03/02 13:40:16;;;;;;;2.72;0.90;;;5.80;68.50;;;;;;5052245;28;20167;-75
2021/03/02 13:42:51;;;;;;;2.60;0.93;;;5.80;68.30;;;;;;5052270;28;20029;-75
2021/03/02 13:45:19;;;;;;;2.90;1.00;;;5.80;68.40;;;;;;5051722;28;20029;-70
2021/03/02 13:47:45;;;;;;;2.75;1.17;;;5.80;68.50;;;;;;5052245;28;20064;-74
2021/03/02 13:50:14;;;;;;;7.15;1.33;;;5.80;68.00;;;;;;5050525;28;20375;-74
2021/03/02 13:52:40;;;;;;;3.20;1.10;;;5.80;68.00;;;;;;5054372;28;20029;-71
2021/03/02 13:55:07;;;;;;;2.17;0.93;;;5.80;68.40;;;;;;5051863;28;20035;-74
2021/03/02 13:57:35;;;;;;;2.33;0.90;;;5.80;68.20;;;;;;5052398;28;20025;-74
2021/03/02 14:00:01;;;;;;;1.80;1.00;;;5.80;68.20;;;;;;5050607;28;20028;-74
2021/03/02 14:02:28;;;;;;;1.85;0.68;;;5.80;68.40;;;;;;5051917;28;20025;-74
2021/03/02 14:04:58;;;;;;;1.50;1.02;;;5.80;68.20;;;;;;5050250;28;20025;-73
2021/03/02 14:07:26;;;;;;;4.28;1.02;;;5.80;68.20;;;;;;5051153;28;20488;-73
2021/03/02 14:09:52;;;;;;;5.65;1.02;;;5.80;68.70;;;;;;5051230;28;20043;-73
2021/03/02 14:12:18;;;;;;;3.15;1.10;;;5.80;69.20;;;;;;5050944;28;20021;-72
2021/03/02 14:14:44;;;;;;;3.03;1.23;;;5.70;68.90;;;;;;5051077;28;20044;-73
2021/03/02 14:17:11;;;;;;;3.15;0.95;;;5.80;68.50;;;;;;5051038;28;20463;-73
2021/03/02 14:19:38;;;;;;;2.65;1.13;;;5.70;68.80;;;;;;5051210;28;20029;-74
2021/03/02 14:22:04;;;;;;;4.65;0.90;;;5.80;69.30;;;;;;5032018;28;20033;-75
2021/03/02 14:24:30;;;;;;;2.05;1.15;;;5.80;69.10;;;;;;5031952;28;20025;-74
2021/03/02 14:26:56;;;;;;;5.32;1.17;;;5.80;69.00;;;;;;5034070;28;20057;-75
2021/03/02 14:29:22;;;;;;;3.92;0.93;;;5.80;69.20;;;;;;5050505;28;20366;-75
2021/03/02 14:31:48;;;;;;;3.47;1.10;;;5.70;68.60;;;;;;5050983;28;20028;-74
2021/03/02 14:34:14;;;;;;;4.28;1.15;;;5.70;68.70;;;;;;5051048;28;20021;-75
2021/03/02 14:36:40;;;;;;;4.03;1.17;;;5.70;68.80;;;;;;5051211;28;20388;-75
2021/03/02 14:39:06;;;;;;;2.63;0.90;;;5.70;69.10;;;;;;5050945;28;20032;-75
2021/03/02 14:41:33;;;;;;;8.40;1.10;;;5.60;69.10;;;;;;5051297;28;20126;-74
2021/03/02 14:44:05;;;;;;;4.90;1.10;;;5.60;69.40;;;;;;5050490;28;20057;-75
2021/03/02 14:46:39;;;;;;;3.50;0.90;;;5.60;68.90;;;;;;5051367;28;20425;-75
2021/03/02 14:49:28;;;;;;;3.65;1.33;;;5.60;69.40;;;;;;5051404;28;20041;-76
2021/03/02 14:51:56;;;;;;;2.40;0.77;;;5.50;69.60;;;;;;5051581;28;20018;-76
2021/03/02 14:54:24;;;;;;;6.95;1.00;;;5.50;69.80;;;;;;5051078;28;20029;-76
2021/03/02 14:56:53;;;;;;;3.28;0.90;;;5.50;70.00;;;;;;5051450;28;20500;-77
2021/03/02 14:59:21;;;;;;;2.05;0.95;;;5.40;70.30;;;;;;5051367;28;20091;-71
2021/03/02 15:01:48;;;;;;;1.75;1.02;;;5.40;70.40;;;;;;5051257;28;20052;-71
2021/03/02 15:04:14;;;;;;;6.93;1.05;;;5.40;70.50;;;;;;5051323;28;20052;-76
2021/03/02 15:06:41;;;;;;;0.73;0.60;;;5.40;70.90;;;;;;5050763;28;20381;-69
2021/03/02 15:09:06;;;;;;;4.32;1.05;;;5.40;73.50;;;;;;5051074;28;20235;-75
2021/03/02 15:11:32;;;;;;;6.28;1.77;;;6.50;77.80;;;;;;5051574;28;20029;-75
2021/03/02 15:13:59;;;;;;;3.65;1.02;;;6.40;72.00;;;;;;5052136;28;20052;-69
2021/03/02 15:16:25;;;;;;;3.17;1.10;;;6.90;76.10;;;;;;5054323;28;20058;-70
2021/03/02 15:18:51;;;;;;;5.63;1.27;;;6.90;74.60;;;;;;5054957;28;20017;-68
2021/03/02 15:21:18;;;;;;;6.18;1.20;;;6.60;70.00;;;;;;5054678;28;20484;-69
2021/03/02 15:23:45;;;;;;;5.65;1.00;;;6.20;69.70;;;;;;5054696;28;20029;-69
2021/03/02 15:26:12;;;;;;;4.80;1.15;;;6.00;71.50;;;;;;5053872;28;20029;-67
2021/03/02 15:28:52;;;;;;;2.10;1.10;;;5.80;70.70;;;;;;5054098;28;20058;-69
2021/03/02 15:31:19;;;;;;;4.60;1.20;;;5.70;70.80;;;;;;5053986;28;20495;-69
2021/03/02 15:33:45;;;;;;;5.50;1.00;;;5.60;71.30;;;;;;5053985;28;20040;-69
2021/03/02 15:36:11;;;;;;;5.03;1.20;;;5.60;71.70;;;;;;5053759;28;20044;-69
2021/03/02 15:38:41;;;;;;;5.07;1.10;;;5.50;72.20;;;;;;5053801;28;20063;-69
2021/03/02 15:41:07;;;;;;;5.20;0.95;;;5.50;72.40;;;;;;5053784;28;20275;-70
2021/03/02 15:43:33;;;;;;;3.13;1.10;;;5.50;72.40;;;;;;5053880;28;20357;-70
2021/03/02 15:46:04;;;;;;;3.30;0.90;;;5.40;72.20;;;;;;5053896;28;20024;-72
2021/03/02 15:48:32;;;;;;;2.67;1.15;;;5.30;72.10;;;;;;5051054;28;20086;-69
2021/03/02 15:51:03;;;;;;;4.07;1.27;;;5.30;72.50;;;;;;5053244;28;20025;-70
2021/03/02 15:53:30;;;;;;;2.90;1.20;;;5.30;72.70;;;;;;5053918;28;20025;-71
2021/03/02 15:55:56;;;;;;;4.63;1.00;;;5.20;72.70;;;;;;5052631;28;20013;-71
2021/03/02 15:58:22;;;;;;;4.60;1.02;;;5.20;72.60;;;;;;5053514;28;20392;-72
2021/03/02 16:00:48;;;;;;;4.00;1.00;;;5.20;73.10;;;;;;5053443;28;20491;-76
2021/03/02 16:03:38;;;;;;;3.10;1.08;;;5.10;72.90;;;;;;5053780;28;20029;-76
2021/03/02 16:06:17;;;;;;;2.55;1.20;;;5.10;73.10;;;;;;5053847;28;20388;-76
2021/03/02 16:08:53;;;;;;;5.57;1.20;;;5.10;73.60;;;;;;5053975;28;20091;-76
2021/03/02 16:11:25;;;;;;;2.17;0.90;;;5.10;74.00;;;;;;5053804;28;20033;-72
2021/03/02 16:13:53;;;;;;;2.55;0.80;;;5.10;74.10;;;;;;5053600;28;20028;-73
2021/03/02 16:16:21;;;;;;;3.03;0.93;;;5.10;74.10;;;;;;5053690;28;20036;-78
2021/03/02 16:18:50;;;;;;;5.50;1.00;;;5.00;74.40;;;;;;5053936;28;20131;-79
2021/03/02 16:21:18;;;;;;;2.87;1.17;;;5.00;74.20;;;;;;5053841;28;20032;-78
2021/03/02 16:23:47;;;;;;;4.15;0.90;;;4.90;74.50;;;;;;5053556;28;20021;-69
2021/03/02 16:26:13;;;;;;;6.32;1.15;;;4.90;75.00;;;;;;5052580;28;20086;-70
2021/03/02 16:28:43;;;;;;;3.70;1.50;;;4.90;74.90;;;;;;5051842;28;20103;-70
2021/03/02 16:31:10;;;;;;;;;;;4.80;75.20;;;;;;5053441;28;20017;-69
2021/03/02 16:33:37;;;;;;;6.05;1.23;;;4.90;75.60;;;;;;5053129;28;19946;-68
2021/03/02 16:36:04;;;;;;;3.08;0.80;;;4.90;75.60;;;;;;5053434;28;20078;-72
2021/03/02 16:38:31;;;;;;;6.82;2.40;;;4.80;75.50;;;;;;5053621;28;20085;-70
2021/03/02 16:40:57;;;;;;;5.40;1.20;;;5.50;96.70;;;;;;5053424;28;20032;-70
2021/03/02 16:43:23;;;;;;;5.88;1.10;;;6.50;85.90;;;;;;5052979;28;20036;-70
2021/03/02 16:45:50;;;;;;;4.38;1.20;;;6.30;77.20;;;;;;5052993;28;20033;-70
2021/03/02 16:48:16;;;;;;;3.22;1.33;;;5.90;74.90;;;;;;5053079;28;20037;-70
2021/03/02 16:50:41;;;;;;;3.17;0.98;;;5.60;75.20;;;;;;5052956;28;20435;-70
2021/03/02 16:53:18;;;;;;;2.40;0.90;;;5.40;75.60;;;;;;5052738;28;20059;-71
2021/03/02 16:55:50;;;;;;;2.60;0.80;;;5.40;76.30;;;;;;5053404;28;20025;-70
2021/03/02 16:58:30;;;;;;;4.93;1.00;;;5.30;76.10;;;;;;5054170;28;20068;-69
2021/03/02 17:01:26;;;;;;;7.20;1.10;;;5.20;76.70;;;;;;5054118;28;20535;-71
2021/03/02 17:03:57;;;;;;;7.72;1.88;;;5.20;76.70;;;;;;5052787;28;20492;-65
2021/03/02 17:06:28;;;;;;;4.53;0.93;;;6.90;99.90;;;;;;5052723;28;20485;-70
2021/03/02 17:08:56;;;;;;;4.13;1.20;;;8.60;77.00;;;;;;5052333;28;20550;-70
2021/03/02 17:11:23;;;;;;;2.03;0.90;;;8.10;71.30;;;;;;5044939;28;20020;-70
2021/03/02 17:13:49;;;;;;;3.22;1.10;;;7.20;70.00;;;;;;5038731;28;20488;-70
2021/03/02 17:16:15;;;;;;;3.97;1.00;;;6.60;71.90;;;;;;5049071;28;20037;-67
2021/03/02 17:18:42;;;;;;;5.63;1.15;;;6.20;73.50;;;;;;5052071;28;20388;-69
2021/03/02 17:21:08;;;;;;;4.80;0.90;;;6.00;74.50;;;;;;5051840;28;20025;-69